NCAR-RAP Real-Time Weather Data

Output produced by METARs form (08 May 2021  01:58 UTC)
found at http://weather.rap.ucar.edu/surface/
 
KHUL 080053Z AUTO 00000KT 10SM CLR 04/01 A2999 RMK AO2 SLP159 T00440006
KHUL 072353Z AUTO 00000KT 10SM CLR 08/00 A2997 RMK AO2 SLP155 T00780000 10133 20078 51012
KHUL 072253Z AUTO 02005KT 10SM SCT070 12/M02 A2997 RMK AO2 SLP151 T01171017
KHUL 072153Z AUTO 01007KT 10SM BKN070 12/M02 A2995 RMK AO2 SLP147 T01221017
KHUL 072053Z AUTO 36007KT 10SM BKN070 12/M02 A2994 RMK AO2 SLP142 T01221017 55003
KHUL 071953Z AUTO VRB03KT 10SM BKN070 12/M02 A2994 RMK AO2 SLP141 T01221022
KHUL 071853Z AUTO 00000KT 10SM BKN065 12/M02 A2994 RMK AO2 SLP142 T01221022
KHUL 071753Z AUTO 32005KT 10SM OVC060 12/M02 A2995 RMK AO2 SLP145 T01171022 10128 20044 56007
KHUL 071653Z AUTO 01006KT 10SM OVC055 11/M01 A2995 RMK AO2 SLP147 T01111006
KHUL 071553Z AUTO 01004KT 10SM BKN040 BKN049 OVC055 09/00 A2996 RMK AO2 SLP151 T00940000
KHUL 071453Z AUTO 08005KT 10SM BKN033 08/01 A2997 RMK AO2 SLP153 T00830006 51004
KHUL 071426Z AUTO VRB03KT 10SM BKN031 08/00 A2997 RMK AO2 T00780000
KHUL 071353Z AUTO 36010KT 10SM OVC026 08/01 A2997 RMK AO2 SLP153 T00830011
KHUL 071253Z AUTO 35008KT 320V020 10SM OVC025 06/00 A2996 RMK AO2 SLP151 T00610000
KHUL 071153Z AUTO 00000KT 10SM OVC024 04/00 A2996 RMK AO2 SLP150 T00440000 10044 21011 51019
KHUL 071053Z AUTO 25004KT 10SM OVC024 03/00 A2995 RMK AO2 SLP147 T00330000